< < Back
Terminal Aerodrome Forecast


Current Version              Previous Versions:   1  2  3  4  5  6  7  8  9  

Terminal Aerodrome Forecast

628
FTUS42 KGSP 031126
TAFGSP
TAF
KGSP 031126Z 0312/0412 24007KT P6SM -SHRA BKN007
     FM031300 24010KT P6SM VCSH SCT007 BKN200
      TEMPO 0318/0321 4SM -TSRA BKN045CB
     FM040000 28008KT P6SM SCT250
     FM040600 33003KT P6SM BKN100=

Latest METAR

994
SAUS70 KWBC 032200 RRG
MTRGSP
METAR KGSP 032153Z 22018G24KT 10SM CLR 26/13 A2974 RMK AO2 SLP060
T02610133


USA.gov is the U.S. government's official web portal to all federal, state and local government web resources and services.